sensor_id;sensor_type;location;lat;lon;timestamp;pressure;altitude;pressure_sealevel;temperature;humidity
74268;BME280;62638;51.362;12.472;2022-08-26T00:00:49;100093.59;;;19.24;91.85
74268;BME280;62638;51.362;12.472;2022-08-26T00:03:15;100091.72;;;19.18;92.03
74268;BME280;62638;51.362;12.472;2022-08-26T00:05:41;100101.94;;;19.10;92.65
74268;BME280;62638;51.362;12.472;2022-08-26T00:08:10;100099.16;;;19.03;93.00
74268;BME280;62638;51.362;12.472;2022-08-26T00:10:35;100096.84;;;18.93;92.89
74268;BME280;62638;51.362;12.472;2022-08-26T00:13:01;100092.22;;;18.87;92.84
74268;BME280;62638;51.362;12.472;2022-08-26T00:15:26;100096.97;;;18.79;93.60
74268;BME280;62638;51.362;12.472;2022-08-26T00:17:52;100094.44;;;18.77;93.66
74268;BME280;62638;51.362;12.472;2022-08-26T00:20:25;100093.34;;;18.65;93.73
74268;BME280;62638;51.362;12.472;2022-08-26T00:22:52;100087.91;;;18.58;94.71
74268;BME280;62638;51.362;12.472;2022-08-26T00:25:17;100093.44;;;18.50;94.57
74268;BME280;62638;51.362;12.472;2022-08-26T00:27:43;100090.69;;;18.44;94.75
74268;BME280;62638;51.362;12.472;2022-08-26T00:30:12;100092.97;;;18.40;94.61
74268;BME280;62638;51.362;12.472;2022-08-26T00:32:38;100089.22;;;18.41;94.87
74268;BME280;62638;51.362;12.472;2022-08-26T00:35:07;100087.34;;;18.42;94.61
74268;BME280;62638;51.362;12.472;2022-08-26T00:37:34;100086.28;;;18.43;94.88
74268;BME280;62638;51.362;12.472;2022-08-26T00:40:00;100085.50;;;18.49;95.08
74268;BME280;62638;51.362;12.472;2022-08-26T00:42:25;100078.63;;;18.46;94.71
74268;BME280;62638;51.362;12.472;2022-08-26T00:44:52;100084.13;;;18.32;95.19
74268;BME280;62638;51.362;12.472;2022-08-26T00:47:38;100085.81;;;18.33;95.28
74268;BME280;62638;51.362;12.472;2022-08-26T00:50:07;100084.13;;;18.32;95.01
74268;BME280;62638;51.362;12.472;2022-08-26T00:52:54;100088.50;;;18.54;95.09
74268;BME280;62638;51.362;12.472;2022-08-26T00:55:35;100077.38;;;18.83;93.90
74268;BME280;62638;51.362;12.472;2022-08-26T00:58:04;100076.22;;;19.12;92.34
74268;BME280;62638;51.362;12.472;2022-08-26T01:00:30;100076.06;;;19.20;91.95
74268;BME280;62638;51.362;12.472;2022-08-26T01:02:59;100070.47;;;19.28;91.75
74268;BME280;62638;51.362;12.472;2022-08-26T01:05:25;100075.25;;;19.33;91.00
74268;BME280;62638;51.362;12.472;2022-08-26T01:07:51;100075.47;;;19.38;91.02
74268;BME280;62638;51.362;12.472;2022-08-26T01:10:19;100073.59;;;19.32;90.79
74268;BME280;62638;51.362;12.472;2022-08-26T01:13:04;100083.22;;;19.34;90.78
74268;BME280;62638;51.362;12.472;2022-08-26T01:15:41;100074.63;;;19.37;90.83
74268;BME280;62638;51.362;12.472;2022-08-26T01:18:08;100080.06;;;19.31;90.78
74268;BME280;62638;51.362;12.472;2022-08-26T01:23:09;100078.81;;;19.33;90.73
74268;BME280;62638;51.362;12.472;2022-08-26T01:25:39;100080.91;;;19.31;90.51
74268;BME280;62638;51.362;12.472;2022-08-26T01:28:09;100079.22;;;19.30;90.78
74268;BME280;62638;51.362;12.472;2022-08-26T01:30:38;100078.19;;;19.31;90.64
74268;BME280;62638;51.362;12.472;2022-08-26T01:33:10;100078.81;;;19.27;90.52
74268;BME280;62638;51.362;12.472;2022-08-26T01:35:38;100077.72;;;19.21;91.04
74268;BME280;62638;51.362;12.472;2022-08-26T01:38:04;100078.53;;;19.09;91.13
74268;BME280;62638;51.362;12.472;2022-08-26T01:40:32;100074.06;;;18.94;91.91
74268;BME280;62638;51.362;12.472;2022-08-26T01:43:03;100077.38;;;18.83;92.53
74268;BME280;62638;51.362;12.472;2022-08-26T01:45:33;100073.56;;;18.71;93.52
74268;BME280;62638;51.362;12.472;2022-08-26T01:48:03;100074.75;;;18.62;94.01
74268;BME280;62638;51.362;12.472;2022-08-26T01:50:33;100075.56;;;18.56;93.52
74268;BME280;62638;51.362;12.472;2022-08-26T01:53:05;100080.91;;;18.49;94.16
74268;BME280;62638;51.362;12.472;2022-08-26T01:55:32;100072.09;;;18.41;94.38
74268;BME280;62638;51.362;12.472;2022-08-26T01:58:00;100065.34;;;18.30;94.94
74268;BME280;62638;51.362;12.472;2022-08-26T02:00:29;100075.75;;;18.27;95.08
74268;BME280;62638;51.362;12.472;2022-08-26T02:02:55;100075.50;;;18.22;95.13
74268;BME280;62638;51.362;12.472;2022-08-26T02:05:51;100074.03;;;18.19;95.78
74268;BME280;62638;51.362;12.472;2022-08-26T02:08:22;100065.50;;;18.22;95.96
74268;BME280;62638;51.362;12.472;2022-08-26T02:10:49;100067.88;;;18.32;95.94
74268;BME280;62638;51.362;12.472;2022-08-26T02:13:14;100074.53;;;18.29;96.12
74268;BME280;62638;51.362;12.472;2022-08-26T02:15:41;100063.53;;;18.37;95.79
74268;BME280;62638;51.362;12.472;2022-08-26T02:18:09;100070.38;;;18.33;95.93
74268;BME280;62638;51.362;12.472;2022-08-26T02:20:35;100067.09;;;18.38;95.81
74268;BME280;62638;51.362;12.472;2022-08-26T02:23:01;100070.22;;;18.41;95.85
74268;BME280;62638;51.362;12.472;2022-08-26T02:25:31;100066.69;;;18.41;95.45
74268;BME280;62638;51.362;12.472;2022-08-26T02:27:58;100067.13;;;18.44;95.39
74268;BME280;62638;51.362;12.472;2022-08-26T02:30:29;100068.38;;;18.48;95.62
74268;BME280;62638;51.362;12.472;2022-08-26T02:33:00;100066.19;;;18.58;95.49
74268;BME280;62638;51.362;12.472;2022-08-26T02:35:31;100065.00;;;18.68;95.07
74268;BME280;62638;51.362;12.472;2022-08-26T02:37:58;100074.78;;;18.69;94.70
74268;BME280;62638;51.362;12.472;2022-08-26T02:40:28;100063.66;;;18.57;94.90
74268;BME280;62638;51.362;12.472;2022-08-26T02:42:54;100063.38;;;18.45;95.14
74268;BME280;62638;51.362;12.472;2022-08-26T02:45:20;100064.66;;;18.49;95.18
74268;BME280;62638;51.362;12.472;2022-08-26T02:47:46;100059.81;;;18.45;95.27
74268;BME280;62638;51.362;12.472;2022-08-26T02:50:11;100054.41;;;18.51;95.44
74268;BME280;62638;51.362;12.472;2022-08-26T02:52:37;100059.56;;;18.40;95.98
74268;BME280;62638;51.362;12.472;2022-08-26T02:55:03;100057.03;;;18.32;96.27
74268;BME280;62638;51.362;12.472;2022-08-26T02:57:29;100049.47;;;18.27;96.08
74268;BME280;62638;51.362;12.472;2022-08-26T02:59:55;100055.56;;;18.29;96.12
74268;BME280;62638;51.362;12.472;2022-08-26T03:02:23;100047.63;;;18.34;95.67
74268;BME280;62638;51.362;12.472;2022-08-26T03:04:48;100048.31;;;18.43;95.03
74268;BME280;62638;51.362;12.472;2022-08-26T03:07:14;100046.06;;;18.46;95.23
74268;BME280;62638;51.362;12.472;2022-08-26T03:09:40;100046.28;;;18.51;95.40
74268;BME280;62638;51.362;12.472;2022-08-26T03:12:05;100050.44;;;18.47;95.48
74268;BME280;62638;51.362;12.472;2022-08-26T03:14:30;100045.81;;;18.41;95.45
74268;BME280;62638;51.362;12.472;2022-08-26T03:16:56;100040.34;;;18.35;95.66
74268;BME280;62638;51.362;12.472;2022-08-26T03:19:22;100043.63;;;18.24;96.01
74268;BME280;62638;51.362;12.472;2022-08-26T03:21:48;100037.25;;;18.10;95.99
74268;BME280;62638;51.362;12.472;2022-08-26T03:24:14;100028.84;;;17.98;96.89
74268;BME280;62638;51.362;12.472;2022-08-26T03:26:41;100030.31;;;17.73;97.63
74268;BME280;62638;51.362;12.472;2022-08-26T03:29:06;100025.00;;;17.65;98.93
74268;BME280;62638;51.362;12.472;2022-08-26T03:31:50;100017.84;;;17.57;99.43
74268;BME280;62638;51.362;12.472;2022-08-26T03:34:16;100003.00;;;17.53;99.89
74268;BME280;62638;51.362;12.472;2022-08-26T03:36:43;100013.16;;;17.66;99.71
74268;BME280;62638;51.362;12.472;2022-08-26T03:39:09;100019.84;;;17.70;99.26
74268;BME280;62638;51.362;12.472;2022-08-26T03:41:35;100016.06;;;17.64;98.87
74268;BME280;62638;51.362;12.472;2022-08-26T03:44:02;100024.91;;;17.73;98.68
74268;BME280;62638;51.362;12.472;2022-08-26T03:46:29;100031.59;;;17.77;98.29
74268;BME280;62638;51.362;12.472;2022-08-26T03:48:54;100029.97;;;17.83;97.86
74268;BME280;62638;51.362;12.472;2022-08-26T03:51:20;100026.03;;;17.85;98.01
74268;BME280;62638;51.362;12.472;2022-08-26T03:53:46;100027.69;;;17.86;97.92
74268;BME280;62638;51.362;12.472;2022-08-26T03:56:12;100031.78;;;17.76;98.26
74268;BME280;62638;51.362;12.472;2022-08-26T03:58:37;100032.34;;;17.92;97.98
74268;BME280;62638;51.362;12.472;2022-08-26T04:01:03;100033.75;;;17.88;98.78
74268;BME280;62638;51.362;12.472;2022-08-26T04:03:29;100031.19;;;17.80;98.78
74268;BME280;62638;51.362;12.472;2022-08-26T04:06:13;100032.09;;;17.87;98.50
74268;BME280;62638;51.362;12.472;2022-08-26T04:08:38;100034.94;;;17.79;97.98
74268;BME280;62638;51.362;12.472;2022-08-26T04:11:04;100027.34;;;17.68;97.81
74268;BME280;62638;51.362;12.472;2022-08-26T04:13:30;100027.28;;;17.61;97.62
74268;BME280;62638;51.362;12.472;2022-08-26T04:15:56;100025.53;;;17.54;97.82
74268;BME280;62638;51.362;12.472;2022-08-26T04:18:21;100028.38;;;17.46;98.22
74268;BME280;62638;51.362;12.472;2022-08-26T04:20:46;100027.97;;;17.49;98.76
74268;BME280;62638;51.362;12.472;2022-08-26T04:23:13;100019.13;;;17.40;99.35
74268;BME280;62638;51.362;12.472;2022-08-26T04:25:39;100022.69;;;17.41;99.18
74268;BME280;62638;51.362;12.472;2022-08-26T04:28:04;100013.31;;;17.43;98.60
74268;BME280;62638;51.362;12.472;2022-08-26T04:30:29;100014.50;;;17.55;98.30
74268;BME280;62638;51.362;12.472;2022-08-26T04:32:56;100018.63;;;17.51;98.55
74268;BME280;62638;51.362;12.472;2022-08-26T04:35:22;100014.28;;;17.57;98.41
74268;BME280;62638;51.362;12.472;2022-08-26T04:37:47;100018.97;;;17.63;98.57
74268;BME280;62638;51.362;12.472;2022-08-26T04:40:13;100021.97;;;17.75;99.13
74268;BME280;62638;51.362;12.472;2022-08-26T04:42:38;100029.88;;;17.97;98.84
74268;BME280;62638;51.362;12.472;2022-08-26T04:45:04;100034.50;;;18.03;98.59
74268;BME280;62638;51.362;12.472;2022-08-26T04:47:31;100032.72;;;18.17;98.38
74268;BME280;62638;51.362;12.472;2022-08-26T04:49:57;100029.47;;;18.28;98.36
74268;BME280;62638;51.362;12.472;2022-08-26T04:52:23;100022.00;;;18.37;97.63
74268;BME280;62638;51.362;12.472;2022-08-26T04:54:49;100024.16;;;18.48;97.49
74268;BME280;62638;51.362;12.472;2022-08-26T04:57:14;100023.22;;;18.62;97.02
74268;BME280;62638;51.362;12.472;2022-08-26T04:59:39;100024.31;;;18.68;96.19
74268;BME280;62638;51.362;12.472;2022-08-26T05:02:05;100028.28;;;18.78;95.98
74268;BME280;62638;51.362;12.472;2022-08-26T05:04:32;100039.25;;;19.04;95.21
74268;BME280;62638;51.362;12.472;2022-08-26T05:06:57;100035.13;;;19.22;94.02
74268;BME280;62638;51.362;12.472;2022-08-26T05:09:23;100033.28;;;19.42;94.18
74268;BME280;62638;51.362;12.472;2022-08-26T05:11:51;100034.41;;;19.74;92.97
74268;BME280;62638;51.362;12.472;2022-08-26T05:14:17;100034.19;;;19.95;92.03
74268;BME280;62638;51.362;12.472;2022-08-26T05:16:42;100044.44;;;20.00;90.68
74268;BME280;62638;51.362;12.472;2022-08-26T05:19:08;100046.97;;;20.01;89.99
74268;BME280;62638;51.362;12.472;2022-08-26T05:21:33;100039.00;;;20.13;90.73
74268;BME280;62638;51.362;12.472;2022-08-26T05:23:59;100043.38;;;20.27;89.08
74268;BME280;62638;51.362;12.472;2022-08-26T05:26:29;100049.22;;;20.44;89.11
74268;BME280;62638;51.362;12.472;2022-08-26T05:28:56;100048.41;;;20.43;88.40
74268;BME280;62638;51.362;12.472;2022-08-26T05:31:28;100049.59;;;20.60;89.30
74268;BME280;62638;51.362;12.472;2022-08-26T05:33:54;100056.91;;;20.73;88.56
74268;BME280;62638;51.362;12.472;2022-08-26T05:36:24;100063.13;;;20.80;87.20
74268;BME280;62638;51.362;12.472;2022-08-26T05:38:50;100057.00;;;20.98;86.93
74268;BME280;62638;51.362;12.472;2022-08-26T05:41:20;100053.09;;;21.32;86.71
74268;BME280;62638;51.362;12.472;2022-08-26T05:43:49;100058.25;;;21.46;85.31
74268;BME280;62638;51.362;12.472;2022-08-26T05:46:14;100057.88;;;21.74;84.60
74268;BME280;62638;51.362;12.472;2022-08-26T05:48:40;100059.22;;;21.83;83.68
74268;BME280;62638;51.362;12.472;2022-08-26T05:51:09;100053.88;;;22.01;83.02
74268;BME280;62638;51.362;12.472;2022-08-26T05:53:35;100052.66;;;21.97;82.75
74268;BME280;62638;51.362;12.472;2022-08-26T05:56:03;100048.00;;;21.73;82.76
74268;BME280;62638;51.362;12.472;2022-08-26T05:58:29;100047.22;;;21.35;84.93
74268;BME280;62638;51.362;12.472;2022-08-26T06:01:10;100054.09;;;21.37;85.04
74268;BME280;62638;51.362;12.472;2022-08-26T06:03:39;100051.66;;;21.29;85.84
74268;BME280;62638;51.362;12.472;2022-08-26T06:06:08;100051.06;;;21.20;86.06
74268;BME280;62638;51.362;12.472;2022-08-26T06:08:35;100050.84;;;21.22;86.12
74268;BME280;62638;51.362;12.472;2022-08-26T06:11:04;100041.88;;;21.08;87.21
74268;BME280;62638;51.362;12.472;2022-08-26T06:13:31;100044.75;;;21.26;87.56
74268;BME280;62638;51.362;12.472;2022-08-26T06:15:57;100054.75;;;21.39;86.22
74268;BME280;62638;51.362;12.472;2022-08-26T06:18:29;100046.91;;;21.49;87.19
74268;BME280;62638;51.362;12.472;2022-08-26T06:20:57;100063.03;;;21.82;85.95
74268;BME280;62638;51.362;12.472;2022-08-26T06:23:27;100058.63;;;22.31;84.73
74268;BME280;62638;51.362;12.472;2022-08-26T06:26:13;100058.28;;;22.45;81.21
74268;BME280;62638;51.362;12.472;2022-08-26T06:28:40;100060.06;;;22.58;81.92
74268;BME280;62638;51.362;12.472;2022-08-26T06:31:05;100058.16;;;22.58;81.03
74268;BME280;62638;51.362;12.472;2022-08-26T06:33:31;100058.78;;;22.60;81.80
74268;BME280;62638;51.362;12.472;2022-08-26T06:35:56;100059.09;;;22.71;82.12
74268;BME280;62638;51.362;12.472;2022-08-26T06:38:23;100060.00;;;22.65;81.21
74268;BME280;62638;51.362;12.472;2022-08-26T06:40:50;100066.16;;;22.78;80.17
74268;BME280;62638;51.362;12.472;2022-08-26T06:43:18;100061.31;;;22.80;80.31
74268;BME280;62638;51.362;12.472;2022-08-26T06:45:44;100065.25;;;22.84;80.32
74268;BME280;62638;51.362;12.472;2022-08-26T06:48:15;100058.63;;;23.10;79.58
74268;BME280;62638;51.362;12.472;2022-08-26T06:50:43;100053.44;;;23.20;79.00
74268;BME280;62638;51.362;12.472;2022-08-26T06:53:11;100064.66;;;23.30;78.76
74268;BME280;62638;51.362;12.472;2022-08-26T06:55:43;100063.63;;;23.43;79.69
74268;BME280;62638;51.362;12.472;2022-08-26T06:58:10;100068.81;;;23.51;78.50
74268;BME280;62638;51.362;12.472;2022-08-26T07:00:36;100055.31;;;23.68;77.14
74268;BME280;62638;51.362;12.472;2022-08-26T07:03:04;100056.88;;;23.87;75.60
74268;BME280;62638;51.362;12.472;2022-08-26T07:05:29;100056.88;;;23.87;76.11
74268;BME280;62638;51.362;12.472;2022-08-26T07:07:55;100056.09;;;23.98;75.57
74268;BME280;62638;51.362;12.472;2022-08-26T07:10:22;100057.66;;;23.34;78.05
74268;BME280;62638;51.362;12.472;2022-08-26T07:12:48;100053.09;;;24.00;76.32
74268;BME280;62638;51.362;12.472;2022-08-26T07:15:15;100049.84;;;24.32;76.34
74268;BME280;62638;51.362;12.472;2022-08-26T07:17:40;100055.53;;;24.54;73.52
74268;BME280;62638;51.362;12.472;2022-08-26T07:20:06;100052.06;;;24.47;75.02
74268;BME280;62638;51.362;12.472;2022-08-26T07:22:33;100058.75;;;24.63;73.96
74268;BME280;62638;51.362;12.472;2022-08-26T07:24:59;100050.78;;;24.26;74.27
74268;BME280;62638;51.362;12.472;2022-08-26T07:27:24;100047.28;;;24.89;73.23
74268;BME280;62638;51.362;12.472;2022-08-26T07:29:49;100048.38;;;25.16;73.25
74268;BME280;62638;51.362;12.472;2022-08-26T07:32:17;100056.97;;;25.48;71.32
74268;BME280;62638;51.362;12.472;2022-08-26T07:34:44;100054.22;;;25.48;70.42
74268;BME280;62638;51.362;12.472;2022-08-26T07:37:09;100055.03;;;25.60;68.81
74268;BME280;62638;51.362;12.472;2022-08-26T07:39:36;100057.50;;;25.05;71.27
74268;BME280;62638;51.362;12.472;2022-08-26T07:42:03;100058.38;;;25.22;70.04
74268;BME280;62638;51.362;12.472;2022-08-26T07:44:31;100060.72;;;25.30;72.77
74268;BME280;62638;51.362;12.472;2022-08-26T07:46:56;100061.69;;;25.36;69.64
74268;BME280;62638;51.362;12.472;2022-08-26T07:49:22;100061.91;;;25.35;70.96
74268;BME280;62638;51.362;12.472;2022-08-26T07:51:49;100067.06;;;24.91;71.28
74268;BME280;62638;51.362;12.472;2022-08-26T07:54:15;100058.84;;;24.91;71.02
74268;BME280;62638;51.362;12.472;2022-08-26T07:56:41;100057.78;;;25.20;69.54
74268;BME280;62638;51.362;12.472;2022-08-26T07:59:06;100063.31;;;25.09;71.57
74268;BME280;62638;51.362;12.472;2022-08-26T08:01:32;100054.81;;;25.22;70.67
74268;BME280;62638;51.362;12.472;2022-08-26T08:03:58;100052.22;;;25.44;70.89
74268;BME280;62638;51.362;12.472;2022-08-26T08:06:26;100059.03;;;25.69;68.80
74268;BME280;62638;51.362;12.472;2022-08-26T08:08:51;100057.72;;;25.89;71.38
74268;BME280;62638;51.362;12.472;2022-08-26T08:11:18;100061.88;;;25.74;68.62
74268;BME280;62638;51.362;12.472;2022-08-26T08:13:47;100051.31;;;25.83;68.27
74268;BME280;62638;51.362;12.472;2022-08-26T08:16:13;100056.63;;;25.73;68.17
74268;BME280;62638;51.362;12.472;2022-08-26T08:18:39;100056.91;;;25.88;68.48
74268;BME280;62638;51.362;12.472;2022-08-26T08:21:04;100058.19;;;25.69;68.75
74268;BME280;62638;51.362;12.472;2022-08-26T08:23:31;100051.50;;;25.08;71.68
74268;BME280;62638;51.362;12.472;2022-08-26T08:26:04;100056.50;;;25.11;71.30
74268;BME280;62638;51.362;12.472;2022-08-26T08:28:29;100052.25;;;25.04;70.55
74268;BME280;62638;51.362;12.472;2022-08-26T08:30:54;100048.88;;;25.42;70.64
74268;BME280;62638;51.362;12.472;2022-08-26T08:33:20;100050.63;;;25.76;68.09
74268;BME280;62638;51.362;12.472;2022-08-26T08:35:47;100045.41;;;25.74;68.15
74268;BME280;62638;51.362;12.472;2022-08-26T08:38:13;100043.75;;;25.90;67.88
74268;BME280;62638;51.362;12.472;2022-08-26T08:40:40;100049.91;;;26.47;65.73
74268;BME280;62638;51.362;12.472;2022-08-26T08:43:10;100043.88;;;26.50;65.19
74268;BME280;62638;51.362;12.472;2022-08-26T08:45:49;100044.19;;;26.92;63.44
74268;BME280;62638;51.362;12.472;2022-08-26T08:48:23;100039.78;;;27.62;62.92
74268;BME280;62638;51.362;12.472;2022-08-26T08:51:11;100028.97;;;28.14;63.28
74268;BME280;62638;51.362;12.472;2022-08-26T08:53:43;100027.22;;;28.34;61.10
74268;BME280;62638;51.362;12.472;2022-08-26T08:59:02;100028.06;;;28.82;58.30
74268;BME280;62638;51.362;12.472;2022-08-26T09:04:56;100021.69;;;28.34;59.97
74268;BME280;62638;51.362;12.472;2022-08-26T09:07:47;100021.25;;;28.11;60.03
74268;BME280;62638;51.362;12.472;2022-08-26T09:10:35;100019.41;;;28.68;56.37
74268;BME280;62638;51.362;12.472;2022-08-26T09:13:10;100020.00;;;28.75;56.02
74268;BME280;62638;51.362;12.472;2022-08-26T09:21:06;100019.28;;;28.43;57.27
74268;BME280;62638;51.362;12.472;2022-08-26T09:23:35;100015.78;;;29.20;55.77
74268;BME280;62638;51.362;12.472;2022-08-26T09:28:53;100005.91;;;29.29;56.65
74268;BME280;62638;51.362;12.472;2022-08-26T09:31:26;100012.88;;;30.02;55.26
74268;BME280;62638;51.362;12.472;2022-08-26T09:36:48;100004.78;;;28.68;57.99
74268;BME280;62638;51.362;12.472;2022-08-26T09:39:34;99998.47;;;29.50;54.22
74268;BME280;62638;51.362;12.472;2022-08-26T09:44:30;99995.47;;;29.97;55.40
74268;BME280;62638;51.362;12.472;2022-08-26T09:47:00;99987.44;;;29.75;54.20
74268;BME280;62638;51.362;12.472;2022-08-26T09:52:20;99979.97;;;29.65;54.56
74268;BME280;62638;51.362;12.472;2022-08-26T09:55:03;99986.63;;;30.15;52.92
74268;BME280;62638;51.362;12.472;2022-08-26T09:57:35;99979.72;;;29.77;53.29
74268;BME280;62638;51.362;12.472;2022-08-26T10:00:30;99978.03;;;29.56;53.38
74268;BME280;62638;51.362;12.472;2022-08-26T10:02:57;99979.44;;;30.19;52.76
74268;BME280;62638;51.362;12.472;2022-08-26T10:05:36;99970.75;;;30.66;51.70
74268;BME280;62638;51.362;12.472;2022-08-26T10:08:36;99962.53;;;31.10;53.49
74268;BME280;62638;51.362;12.472;2022-08-26T10:14:03;99953.50;;;29.54;52.88
74268;BME280;62638;51.362;12.472;2022-08-26T10:17:02;99946.75;;;29.05;54.75
74268;BME280;62638;51.362;12.472;2022-08-26T10:19:35;99947.25;;;28.86;54.63
74268;BME280;62638;51.362;12.472;2022-08-26T10:22:06;99931.91;;;29.16;53.37
74268;BME280;62638;51.362;12.472;2022-08-26T10:24:46;99924.50;;;29.97;53.16
74268;BME280;62638;51.362;12.472;2022-08-26T10:27:30;99922.63;;;30.67;51.17
74268;BME280;62638;51.362;12.472;2022-08-26T10:30:09;99920.94;;;31.20;50.27
74268;BME280;62638;51.362;12.472;2022-08-26T10:32:37;99907.88;;;31.65;45.90
74268;BME280;62638;51.362;12.472;2022-08-26T10:35:05;99919.00;;;31.21;46.29
74268;BME280;62638;51.362;12.472;2022-08-26T10:37:36;99919.91;;;30.52;47.27
74268;BME280;62638;51.362;12.472;2022-08-26T10:40:06;99922.66;;;30.57;47.62
74268;BME280;62638;51.362;12.472;2022-08-26T10:42:46;99910.13;;;29.90;48.85
74268;BME280;62638;51.362;12.472;2022-08-26T10:45:23;99893.25;;;29.87;49.27
74268;BME280;62638;51.362;12.472;2022-08-26T10:48:06;99895.34;;;30.35;48.44
74268;BME280;62638;51.362;12.472;2022-08-26T10:50:40;99876.63;;;30.17;47.55
74268;BME280;62638;51.362;12.472;2022-08-26T10:53:19;99868.25;;;31.01;47.18
74268;BME280;62638;51.362;12.472;2022-08-26T11:01:20;99858.34;;;30.85;46.68
74268;BME280;62638;51.362;12.472;2022-08-26T11:06:41;99858.09;;;30.23;45.76
74268;BME280;62638;51.362;12.472;2022-08-26T11:09:46;99844.63;;;31.14;44.79
74268;BME280;62638;51.362;12.472;2022-08-26T11:15:56;99826.28;;;32.90;41.28
74268;BME280;62638;51.362;12.472;2022-08-26T11:18:06;99825.66;;;33.90;37.41
74268;BME280;62638;51.362;12.472;2022-08-26T11:28:46;99829.94;;;32.66;38.85
74268;BME280;62638;51.362;12.472;2022-08-26T11:33:54;99817.47;;;32.26;41.39
74268;BME280;62638;51.362;12.472;2022-08-26T11:36:34;99818.94;;;31.37;44.44
74268;BME280;62638;51.362;12.472;2022-08-26T11:39:02;99827.66;;;31.83;40.97
74268;BME280;62638;51.362;12.472;2022-08-26T11:41:28;99832.44;;;31.15;43.58
74268;BME280;62638;51.362;12.472;2022-08-26T11:43:57;99848.56;;;29.64;50.90
74268;BME280;62638;51.362;12.472;2022-08-26T11:46:26;99852.00;;;28.49;54.97
74268;BME280;62638;51.362;12.472;2022-08-26T11:49:02;99857.72;;;27.80;55.58
74268;BME280;62638;51.362;12.472;2022-08-26T11:51:29;99851.50;;;27.21;55.43
74268;BME280;62638;51.362;12.472;2022-08-26T11:54:14;99845.50;;;26.97;56.00
74268;BME280;62638;51.362;12.472;2022-08-26T11:56:40;99856.69;;;26.63;55.23
74268;BME280;62638;51.362;12.472;2022-08-26T11:59:08;99873.56;;;26.50;54.64
74268;BME280;62638;51.362;12.472;2022-08-26T12:01:54;99879.84;;;26.07;55.03
74268;BME280;62638;51.362;12.472;2022-08-26T12:04:36;99870.16;;;25.28;60.04
74268;BME280;62638;51.362;12.472;2022-08-26T12:07:04;99870.59;;;24.23;66.66
74268;BME280;62638;51.362;12.472;2022-08-26T12:09:34;99892.28;;;22.90;75.22
74268;BME280;62638;51.362;12.472;2022-08-26T12:14:37;99868.41;;;21.58;83.49
74268;BME280;62638;51.362;12.472;2022-08-26T12:17:14;99867.16;;;21.36;88.10
74268;BME280;62638;51.362;12.472;2022-08-26T12:19:40;99857.00;;;21.25;87.55
74268;BME280;62638;51.362;12.472;2022-08-26T12:27:23;99852.94;;;21.03;87.33
74268;BME280;62638;51.362;12.472;2022-08-26T12:30:18;99857.94;;;21.06;89.25
74268;BME280;62638;51.362;12.472;2022-08-26T12:32:49;99845.00;;;21.01;89.28
74268;BME280;62638;51.362;12.472;2022-08-26T12:35:17;99849.63;;;21.01;90.90
74268;BME280;62638;51.362;12.472;2022-08-26T12:37:46;99846.47;;;21.04;90.89
74268;BME280;62638;51.362;12.472;2022-08-26T12:40:41;99841.59;;;21.06;91.33
74268;BME280;62638;51.362;12.472;2022-08-26T12:43:08;99842.22;;;21.08;92.50
74268;BME280;62638;51.362;12.472;2022-08-26T12:45:53;99825.69;;;21.09;91.98
74268;BME280;62638;51.362;12.472;2022-08-26T12:48:27;99828.16;;;21.11;92.33
74268;BME280;62638;51.362;12.472;2022-08-26T12:50:53;99826.47;;;21.16;90.89
74268;BME280;62638;51.362;12.472;2022-08-26T12:55:49;99832.94;;;21.22;91.21
74268;BME280;62638;51.362;12.472;2022-08-26T12:58:23;99846.03;;;21.32;91.15
74268;BME280;62638;51.362;12.472;2022-08-26T13:08:53;99846.44;;;21.53;93.53
74268;BME280;62638;51.362;12.472;2022-08-26T13:11:28;99847.41;;;21.65;92.92
74268;BME280;62638;51.362;12.472;2022-08-26T13:13:58;99846.25;;;21.73;90.25
74268;BME280;62638;51.362;12.472;2022-08-26T13:16:25;99857.47;;;21.65;90.62
74268;BME280;62638;51.362;12.472;2022-08-26T13:19:06;99854.38;;;21.61;90.59
74268;BME280;62638;51.362;12.472;2022-08-26T13:21:39;99854.91;;;21.70;91.00
74268;BME280;62638;51.362;12.472;2022-08-26T13:24:09;99850.94;;;21.84;89.46
74268;BME280;62638;51.362;12.472;2022-08-26T13:26:43;99850.34;;;21.82;93.45
74268;BME280;62638;51.362;12.472;2022-08-26T13:29:09;99846.69;;;21.95;94.36
74268;BME280;62638;51.362;12.472;2022-08-26T13:31:39;99841.44;;;21.93;90.90
74268;BME280;62638;51.362;12.472;2022-08-26T13:34:06;99844.84;;;22.07;91.10
74268;BME280;62638;51.362;12.472;2022-08-26T13:36:33;99846.63;;;22.31;89.45
74268;BME280;62638;51.362;12.472;2022-08-26T13:39:00;99859.38;;;22.37;88.37
74268;BME280;62638;51.362;12.472;2022-08-26T13:41:25;99858.91;;;22.40;90.12
74268;BME280;62638;51.362;12.472;2022-08-26T13:43:50;99870.06;;;22.39;89.14
74268;BME280;62638;51.362;12.472;2022-08-26T13:46:16;99869.63;;;22.24;88.24
74268;BME280;62638;51.362;12.472;2022-08-26T13:48:44;99878.25;;;22.21;86.91
74268;BME280;62638;51.362;12.472;2022-08-26T13:51:09;99873.03;;;22.01;93.68
74268;BME280;62638;51.362;12.472;2022-08-26T13:53:35;99876.38;;;22.03;95.98
74268;BME280;62638;51.362;12.472;2022-08-26T13:56:00;99882.16;;;22.13;96.40
74268;BME280;62638;51.362;12.472;2022-08-26T13:58:26;99876.97;;;22.05;93.13
74268;BME280;62638;51.362;12.472;2022-08-26T14:00:56;99878.94;;;21.98;91.02
74268;BME280;62638;51.362;12.472;2022-08-26T14:03:22;99867.41;;;22.14;94.32